sensor_id;sensor_type;location;lat;lon;timestamp;pressure;altitude;pressure_sealevel;temperature;humidity
45523;BME280;31254;51.680;5.394;2022-10-24T00:01:20;100364.25;;;15.68;93.28
45523;BME280;31254;51.680;5.394;2022-10-24T00:03:48;100380.25;;;15.80;92.69
45523;BME280;31254;51.680;5.394;2022-10-24T00:06:18;100379.97;;;15.75;93.25
45523;BME280;31254;51.680;5.394;2022-10-24T00:08:46;100376.88;;;15.78;92.97
45523;BME280;31254;51.680;5.394;2022-10-24T00:11:21;100360.94;;;15.58;93.08
45523;BME280;31254;51.680;5.394;2022-10-24T00:13:49;100373.97;;;15.71;92.98
45523;BME280;31254;51.680;5.394;2022-10-24T00:16:17;100370.66;;;15.76;92.79
45523;BME280;31254;51.680;5.394;2022-10-24T00:18:44;100361.50;;;15.68;92.51
45523;BME280;31254;51.680;5.394;2022-10-24T00:21:10;100373.41;;;15.76;92.45
45523;BME280;31254;51.680;5.394;2022-10-24T00:23:37;100340.97;;;15.49;92.28
45523;BME280;31254;51.680;5.394;2022-10-24T00:26:05;100345.06;;;15.53;92.03
45523;BME280;31254;51.680;5.394;2022-10-24T00:28:35;100371.03;;;15.72;92.18
45523;BME280;31254;51.680;5.394;2022-10-24T00:31:04;100344.44;;;15.58;92.00
45523;BME280;31254;51.680;5.394;2022-10-24T00:33:32;100363.84;;;15.71;91.79
45523;BME280;31254;51.680;5.394;2022-10-24T00:35:58;100376.72;;;15.71;91.75
45523;BME280;31254;51.680;5.394;2022-10-24T00:38:25;100363.78;;;15.65;91.82
45523;BME280;31254;51.680;5.394;2022-10-24T00:40:52;100356.78;;;15.62;91.61
45523;BME280;31254;51.680;5.394;2022-10-24T00:43:26;100354.66;;;15.64;91.71
45523;BME280;31254;51.680;5.394;2022-10-24T00:45:54;100352.78;;;15.65;91.68
45523;BME280;31254;51.680;5.394;2022-10-24T00:50:54;100331.91;;;15.49;90.95
45523;BME280;31254;51.680;5.394;2022-10-24T00:53:22;100353.63;;;15.65;90.86
45523;BME280;31254;51.680;5.394;2022-10-24T00:55:54;100350.03;;;15.65;90.53
45523;BME280;31254;51.680;5.394;2022-10-24T00:58:24;100354.66;;;15.64;90.60
45523;BME280;31254;51.680;5.394;2022-10-24T01:00:55;100349.16;;;15.64;90.21
45523;BME280;31254;51.680;5.394;2022-10-24T01:03:23;100298.78;;;15.35;90.13
45523;BME280;31254;51.680;5.394;2022-10-24T01:17:08;100345.78;;;15.62;89.96
45523;BME280;31254;51.680;5.394;2022-10-24T01:25:58;100304.72;;;15.39;89.21
45523;BME280;31254;51.680;5.394;2022-10-24T01:28:56;100340.66;;;15.59;89.25
45523;BME280;31254;51.680;5.394;2022-10-24T01:31:50;100349.56;;;15.61;88.78
45523;BME280;31254;51.680;5.394;2022-10-24T01:34:25;100343.88;;;15.63;88.85
45523;BME280;31254;51.680;5.394;2022-10-24T01:37:31;100343.03;;;15.62;88.72
45523;BME280;31254;51.680;5.394;2022-10-24T01:39:59;100331.78;;;15.57;88.35
45523;BME280;31254;51.680;5.394;2022-10-24T01:42:30;100297.72;;;15.36;88.42
45523;BME280;31254;51.680;5.394;2022-10-24T01:45:00;100306.41;;;15.40;88.58
45523;BME280;31254;51.680;5.394;2022-10-24T01:47:33;100318.59;;;15.52;88.30
45523;BME280;31254;51.680;5.394;2022-10-24T01:50:10;100327.13;;;15.58;88.03
45523;BME280;31254;51.680;5.394;2022-10-24T01:52:39;100327.94;;;15.58;88.20
45523;BME280;31254;51.680;5.394;2022-10-24T01:55:08;100329.03;;;15.57;87.97
45523;BME280;31254;51.680;5.394;2022-10-24T01:57:35;100320.72;;;15.50;88.10
45523;BME280;31254;51.680;5.394;2022-10-24T02:00:04;100324.09;;;15.52;88.02
45523;BME280;31254;51.680;5.394;2022-10-24T02:02:40;100313.31;;;15.51;87.82
45523;BME280;31254;51.680;5.394;2022-10-24T02:07:42;100314.81;;;15.53;87.54
45523;BME280;31254;51.680;5.394;2022-10-24T02:10:17;100297.97;;;15.42;87.45
45523;BME280;31254;51.680;5.394;2022-10-24T02:12:52;100285.50;;;15.39;87.24
45523;BME280;31254;51.680;5.394;2022-10-24T02:15:31;100299.28;;;15.46;87.11
45523;BME280;31254;51.680;5.394;2022-10-24T02:17:59;100308.19;;;15.48;86.98
45523;BME280;31254;51.680;5.394;2022-10-24T02:20:33;100295.22;;;15.42;86.76
45523;BME280;31254;51.680;5.394;2022-10-24T02:23:10;100274.34;;;15.26;86.52
45523;BME280;31254;51.680;5.394;2022-10-24T02:25:43;100289.66;;;15.35;86.60
45523;BME280;31254;51.680;5.394;2022-10-24T02:28:16;100317.09;;;15.50;86.61
45523;BME280;31254;51.680;5.394;2022-10-24T02:31:06;100310.69;;;15.43;86.50
45523;BME280;31254;51.680;5.394;2022-10-24T02:33:37;100281.16;;;15.30;86.19
45523;BME280;31254;51.680;5.394;2022-10-24T02:36:06;100275.78;;;15.22;86.25
45523;BME280;31254;51.680;5.394;2022-10-24T02:38:38;100302.44;;;15.43;85.88
45523;BME280;31254;51.680;5.394;2022-10-24T02:41:09;100285.44;;;15.32;85.70
45523;BME280;31254;51.680;5.394;2022-10-24T02:43:39;100306.50;;;15.47;85.59
45523;BME280;31254;51.680;5.394;2022-10-24T02:46:09;100304.16;;;15.44;85.77
45523;BME280;31254;51.680;5.394;2022-10-24T02:48:41;100304.03;;;15.52;85.15
45523;BME280;31254;51.680;5.394;2022-10-24T02:51:12;100271.88;;;15.31;85.09
45523;BME280;31254;51.680;5.394;2022-10-24T02:53:39;100317.38;;;15.55;84.73
45523;BME280;31254;51.680;5.394;2022-10-24T02:56:06;100309.31;;;15.53;84.70
45523;BME280;31254;51.680;5.394;2022-10-24T02:58:33;100295.63;;;15.39;84.62
45523;BME280;31254;51.680;5.394;2022-10-24T03:01:00;100309.13;;;15.55;84.58
45523;BME280;31254;51.680;5.394;2022-10-24T03:03:27;100315.66;;;15.54;84.08
45523;BME280;31254;51.680;5.394;2022-10-24T03:05:54;100315.91;;;15.59;83.86
45523;BME280;31254;51.680;5.394;2022-10-24T03:08:21;100313.81;;;15.61;83.44
45523;BME280;31254;51.680;5.394;2022-10-24T03:10:47;100313.19;;;15.59;82.97
45523;BME280;31254;51.680;5.394;2022-10-24T03:13:14;100309.00;;;15.63;83.17
45523;BME280;31254;51.680;5.394;2022-10-24T03:15:41;100319.59;;;15.66;82.88
45523;BME280;31254;51.680;5.394;2022-10-24T03:18:08;100316.84;;;15.66;82.60
45523;BME280;31254;51.680;5.394;2022-10-24T03:20:35;100321.75;;;15.71;82.44
45523;BME280;31254;51.680;5.394;2022-10-24T03:23:01;100317.97;;;15.72;82.59
45523;BME280;31254;51.680;5.394;2022-10-24T03:25:28;100319.66;;;15.73;82.32
45523;BME280;31254;51.680;5.394;2022-10-24T03:27:58;100314.81;;;15.75;82.25
45523;BME280;31254;51.680;5.394;2022-10-24T03:30:27;100302.19;;;15.59;81.94
45523;BME280;31254;51.680;5.394;2022-10-24T03:32:53;100308.66;;;15.73;81.60
45523;BME280;31254;51.680;5.394;2022-10-24T03:35:20;100321.44;;;15.81;81.46
45523;BME280;31254;51.680;5.394;2022-10-24T03:37:47;100286.31;;;15.61;81.62
45523;BME280;31254;51.680;5.394;2022-10-24T03:40:14;100306.91;;;15.87;81.21
45523;BME280;31254;51.680;5.394;2022-10-24T03:42:42;100314.63;;;15.98;80.94
45523;BME280;31254;51.680;5.394;2022-10-24T03:45:17;100315.56;;;16.05;80.67
45523;BME280;31254;51.680;5.394;2022-10-24T03:47:44;100310.69;;;16.07;80.51
45523;BME280;31254;51.680;5.394;2022-10-24T03:50:11;100303.06;;;16.09;80.28
45523;BME280;31254;51.680;5.394;2022-10-24T03:52:39;100306.47;;;16.12;80.11
45523;BME280;31254;51.680;5.394;2022-10-24T03:55:06;100303.06;;;16.09;80.25
45523;BME280;31254;51.680;5.394;2022-10-24T03:57:33;100288.19;;;15.97;80.47
45523;BME280;31254;51.680;5.394;2022-10-24T03:59:59;100270.91;;;15.82;80.81
45523;BME280;31254;51.680;5.394;2022-10-24T04:02:26;100287.25;;;15.90;81.19
45523;BME280;31254;51.680;5.394;2022-10-24T04:04:57;100293.56;;;15.84;81.32
45523;BME280;31254;51.680;5.394;2022-10-24T04:07:24;100293.09;;;15.80;81.21
45523;BME280;31254;51.680;5.394;2022-10-24T04:09:51;100292.25;;;15.80;81.21
45523;BME280;31254;51.680;5.394;2022-10-24T04:12:18;100272.59;;;15.61;81.40
45523;BME280;31254;51.680;5.394;2022-10-24T04:14:45;100279.28;;;15.52;81.49
45523;BME280;31254;51.680;5.394;2022-10-24T04:17:11;100303.88;;;15.60;81.53
45523;BME280;31254;51.680;5.394;2022-10-24T04:19:38;100297.31;;;15.61;81.76
45523;BME280;31254;51.680;5.394;2022-10-24T04:22:04;100272.84;;;15.45;81.75
45523;BME280;31254;51.680;5.394;2022-10-24T04:24:31;100274.94;;;15.43;81.65
45523;BME280;31254;51.680;5.394;2022-10-24T04:26:59;100295.19;;;15.57;81.71
45523;BME280;31254;51.680;5.394;2022-10-24T04:29:28;100280.06;;;15.46;81.47
45523;BME280;31254;51.680;5.394;2022-10-24T04:31:55;100299.16;;;15.54;81.76
45523;BME280;31254;51.680;5.394;2022-10-24T04:34:24;100305.69;;;15.53;81.78
45523;BME280;31254;51.680;5.394;2022-10-24T04:36:50;100298.97;;;15.56;81.74
45523;BME280;31254;51.680;5.394;2022-10-24T04:39:17;100299.09;;;15.47;81.78
45523;BME280;31254;51.680;5.394;2022-10-24T04:41:45;100308.44;;;15.53;81.72
45523;BME280;31254;51.680;5.394;2022-10-24T04:44:12;100305.06;;;15.51;81.84
45523;BME280;31254;51.680;5.394;2022-10-24T04:46:41;100309.13;;;15.55;81.70
45523;BME280;31254;51.680;5.394;2022-10-24T04:49:08;100297.47;;;15.53;81.44
45523;BME280;31254;51.680;5.394;2022-10-24T04:51:37;100300.47;;;15.58;81.18
45523;BME280;31254;51.680;5.394;2022-10-24T04:54:07;100287.41;;;15.60;80.95
45523;BME280;31254;51.680;5.394;2022-10-24T04:56:34;100293.72;;;15.61;81.27
45523;BME280;31254;51.680;5.394;2022-10-24T04:59:03;100243.34;;;15.32;81.15
45523;BME280;31254;51.680;5.394;2022-10-24T05:01:29;100297.72;;;15.58;80.94
45523;BME280;31254;51.680;5.394;2022-10-24T05:03:58;100276.34;;;15.53;81.25
45523;BME280;31254;51.680;5.394;2022-10-24T05:06:30;100285.88;;;15.58;80.69
45523;BME280;31254;51.680;5.394;2022-10-24T05:08:59;100300.16;;;15.68;80.60
45523;BME280;31254;51.680;5.394;2022-10-24T05:11:26;100274.38;;;15.47;80.58
45523;BME280;31254;51.680;5.394;2022-10-24T05:13:52;100289.88;;;15.55;80.73
45523;BME280;31254;51.680;5.394;2022-10-24T05:16:22;100306.91;;;15.65;80.81
45523;BME280;31254;51.680;5.394;2022-10-24T05:18:49;100301.00;;;15.68;80.59
45523;BME280;31254;51.680;5.394;2022-10-24T05:21:18;100298.91;;;15.70;80.55
45523;BME280;31254;51.680;5.394;2022-10-24T05:23:44;100290.22;;;15.67;80.13
45523;BME280;31254;51.680;5.394;2022-10-24T05:26:11;100305.56;;;15.76;80.16
45523;BME280;31254;51.680;5.394;2022-10-24T05:28:38;100315.84;;;15.74;80.32
45523;BME280;31254;51.680;5.394;2022-10-24T05:31:04;100312.56;;;15.79;80.05
45523;BME280;31254;51.680;5.394;2022-10-24T05:33:35;100304.50;;;15.77;80.37
45523;BME280;31254;51.680;5.394;2022-10-24T05:36:05;100307.69;;;15.81;80.06
45523;BME280;31254;51.680;5.394;2022-10-24T05:38:32;100313.41;;;15.79;79.92
45523;BME280;31254;51.680;5.394;2022-10-24T05:40:59;100299.53;;;15.72;80.47
45523;BME280;31254;51.680;5.394;2022-10-24T05:43:25;100304.41;;;15.70;80.63
45523;BME280;31254;51.680;5.394;2022-10-24T05:45:52;100318.59;;;15.74;80.28
45523;BME280;31254;51.680;5.394;2022-10-24T05:48:19;100313.09;;;15.74;80.13
45523;BME280;31254;51.680;5.394;2022-10-24T05:50:48;100318.59;;;15.74;80.33
45523;BME280;31254;51.680;5.394;2022-10-24T05:53:14;100316.91;;;15.73;80.24
45523;BME280;31254;51.680;5.394;2022-10-24T05:55:42;100321.53;;;15.72;80.31
45523;BME280;31254;51.680;5.394;2022-10-24T05:58:08;100321.34;;;15.74;80.23
45523;BME280;31254;51.680;5.394;2022-10-24T06:00:35;100323.25;;;15.73;80.55
45523;BME280;31254;51.680;5.394;2022-10-24T06:03:02;100325.75;;;15.68;80.60
45523;BME280;31254;51.680;5.394;2022-10-24T06:05:28;100320.72;;;15.72;80.46
45523;BME280;31254;51.680;5.394;2022-10-24T06:07:58;100298.72;;;15.50;80.47
45523;BME280;31254;51.680;5.394;2022-10-24T06:10:25;100337.41;;;15.70;80.67
45523;BME280;31254;51.680;5.394;2022-10-24T06:12:51;100302.31;;;15.51;80.43
45523;BME280;31254;51.680;5.394;2022-10-24T06:15:19;100310.81;;;15.56;80.39
45523;BME280;31254;51.680;5.394;2022-10-24T06:17:52;100335.28;;;15.72;80.22
45523;BME280;31254;51.680;5.394;2022-10-24T06:20:22;100334.44;;;15.72;80.32
45523;BME280;31254;51.680;5.394;2022-10-24T06:22:49;100338.91;;;15.73;80.24
45523;BME280;31254;51.680;5.394;2022-10-24T06:25:16;100350.41;;;15.77;80.33
45523;BME280;31254;51.680;5.394;2022-10-24T06:27:43;100353.16;;;15.77;80.21
45523;BME280;31254;51.680;5.394;2022-10-24T06:30:10;100343.88;;;15.78;80.17
45523;BME280;31254;51.680;5.394;2022-10-24T06:32:38;100358.72;;;15.83;79.90
45523;BME280;31254;51.680;5.394;2022-10-24T06:35:10;100365.06;;;15.84;79.93
45523;BME280;31254;51.680;5.394;2022-10-24T06:37:39;100356.16;;;15.82;79.77
45523;BME280;31254;51.680;5.394;2022-10-24T06:40:11;100352.13;;;15.78;79.94
45523;BME280;31254;51.680;5.394;2022-10-24T06:42:37;100368.41;;;15.79;80.28
45523;BME280;31254;51.680;5.394;2022-10-24T06:45:09;100364.22;;;15.83;80.15
45523;BME280;31254;51.680;5.394;2022-10-24T06:47:36;100358.81;;;15.75;80.09
45523;BME280;31254;51.680;5.394;2022-10-24T06:50:05;100344.34;;;15.66;80.05
45523;BME280;31254;51.680;5.394;2022-10-24T06:52:35;100348.41;;;15.70;79.86
45523;BME280;31254;51.680;5.394;2022-10-24T06:55:03;100382.44;;;15.84;79.88
45523;BME280;31254;51.680;5.394;2022-10-24T06:57:30;100380.31;;;15.86;79.58
45523;BME280;31254;51.680;5.394;2022-10-24T06:59:56;100386.94;;;15.92;79.81
45523;BME280;31254;51.680;5.394;2022-10-24T07:02:25;100398.88;;;15.99;79.52
45523;BME280;31254;51.680;5.394;2022-10-24T07:04:59;100392.31;;;16.00;79.30
45523;BME280;31254;51.680;5.394;2022-10-24T07:07:26;100374.44;;;15.89;79.71
45523;BME280;31254;51.680;5.394;2022-10-24T07:09:56;100375.94;;;15.92;79.35
45523;BME280;31254;51.680;5.394;2022-10-24T07:12:24;100380.19;;;15.95;79.48
45523;BME280;31254;51.680;5.394;2022-10-24T07:14:51;100402.13;;;16.09;79.36
45523;BME280;31254;51.680;5.394;2022-10-24T07:17:23;100389.78;;;15.99;79.38
45523;BME280;31254;51.680;5.394;2022-10-24T07:19:53;100402.38;;;16.15;79.41
45523;BME280;31254;51.680;5.394;2022-10-24T07:22:20;100399.97;;;16.05;79.37
45523;BME280;31254;51.680;5.394;2022-10-24T07:24:52;100426.50;;;16.13;79.71
45523;BME280;31254;51.680;5.394;2022-10-24T07:27:20;100433.53;;;16.15;79.50
45523;BME280;31254;51.680;5.394;2022-10-24T07:29:46;100411.66;;;16.07;79.38
45523;BME280;31254;51.680;5.394;2022-10-24T07:32:13;100433.56;;;16.43;78.27
45523;BME280;31254;51.680;5.394;2022-10-24T07:34:42;100409.44;;;16.45;78.05
45523;BME280;31254;51.680;5.394;2022-10-24T07:37:09;100419.69;;;16.58;78.15
45523;BME280;31254;51.680;5.394;2022-10-24T07:39:36;100442.66;;;16.66;78.06
45523;BME280;31254;51.680;5.394;2022-10-24T07:42:03;100413.09;;;16.53;78.22
45523;BME280;31254;51.680;5.394;2022-10-24T07:44:30;100444.13;;;16.68;78.27
45523;BME280;31254;51.680;5.394;2022-10-24T07:46:57;100450.97;;;16.72;78.62
45523;BME280;31254;51.680;5.394;2022-10-24T07:49:24;100452.47;;;16.75;78.09
45523;BME280;31254;51.680;5.394;2022-10-24T07:51:56;100436.75;;;16.69;77.85
45523;BME280;31254;51.680;5.394;2022-10-24T07:54:23;100466.28;;;16.81;77.61
45523;BME280;31254;51.680;5.394;2022-10-24T07:56:51;100467.09;;;16.75;77.78
45523;BME280;31254;51.680;5.394;2022-10-24T07:59:19;100474.28;;;16.76;77.41
45523;BME280;31254;51.680;5.394;2022-10-24T08:02:09;100464.56;;;16.80;77.17
45523;BME280;31254;51.680;5.394;2022-10-24T08:04:37;100485.06;;;16.93;76.81
45523;BME280;31254;51.680;5.394;2022-10-24T08:07:04;100466.84;;;16.98;76.61
45523;BME280;31254;51.680;5.394;2022-10-24T08:09:41;100464.44;;;16.89;76.57
45523;BME280;31254;51.680;5.394;2022-10-24T08:12:11;100494.22;;;17.00;76.96
45523;BME280;31254;51.680;5.394;2022-10-24T08:14:39;100456.13;;;16.82;76.95
45523;BME280;31254;51.680;5.394;2022-10-24T08:17:06;100474.72;;;17.02;77.00
45523;BME280;31254;51.680;5.394;2022-10-24T08:19:33;100491.41;;;16.93;77.34
45523;BME280;31254;51.680;5.394;2022-10-24T08:22:00;100484.31;;;16.84;77.76
45523;BME280;31254;51.680;5.394;2022-10-24T08:24:27;100475.94;;;16.71;77.64
45523;BME280;31254;51.680;5.394;2022-10-24T08:26:54;100490.00;;;16.82;77.66
45523;BME280;31254;51.680;5.394;2022-10-24T08:29:23;100499.34;;;16.81;77.68
45523;BME280;31254;51.680;5.394;2022-10-24T08:31:53;100469.75;;;16.62;77.80
45523;BME280;31254;51.680;5.394;2022-10-24T08:34:20;100495.53;;;16.82;77.62
45523;BME280;31254;51.680;5.394;2022-10-24T08:36:48;100477.59;;;16.65;77.39
45523;BME280;31254;51.680;5.394;2022-10-24T08:39:15;100480.66;;;16.77;77.62
45523;BME280;31254;51.680;5.394;2022-10-24T08:41:46;100503.22;;;16.87;77.46
45523;BME280;31254;51.680;5.394;2022-10-24T08:44:20;100498.28;;;17.04;76.96
45523;BME280;31254;51.680;5.394;2022-10-24T08:49:47;100463.41;;;18.41;71.16
45523;BME280;31254;51.680;5.394;2022-10-24T08:54:46;100510.75;;;19.45;67.91
45523;BME280;31254;51.680;5.394;2022-10-24T08:57:23;100515.63;;;19.63;67.42
45523;BME280;31254;51.680;5.394;2022-10-24T08:59:53;100513.34;;;19.33;68.39
45523;BME280;31254;51.680;5.394;2022-10-24T09:02:28;100519.09;;;19.32;68.09
45523;BME280;31254;51.680;5.394;2022-10-24T09:05:27;100515.06;;;19.34;68.37
45523;BME280;31254;51.680;5.394;2022-10-24T09:07:57;100493.38;;;19.31;67.93
45523;BME280;31254;51.680;5.394;2022-10-24T09:10:40;100496.16;;;19.25;67.99
45523;BME280;31254;51.680;5.394;2022-10-24T09:13:12;100521.00;;;19.38;67.67
45523;BME280;31254;51.680;5.394;2022-10-24T09:15:41;100530.56;;;19.49;67.63
45523;BME280;31254;51.680;5.394;2022-10-24T09:18:20;100506.56;;;19.29;67.65
45523;BME280;31254;51.680;5.394;2022-10-24T09:20:51;100501.91;;;19.16;67.84
45523;BME280;31254;51.680;5.394;2022-10-24T09:23:21;100526.97;;;19.35;67.79
45523;BME280;31254;51.680;5.394;2022-10-24T09:25:52;100544.84;;;19.32;67.47
45523;BME280;31254;51.680;5.394;2022-10-24T09:28:24;100505.31;;;19.12;67.94
45523;BME280;31254;51.680;5.394;2022-10-24T09:30:51;100509.56;;;19.08;67.61
45523;BME280;31254;51.680;5.394;2022-10-24T09:33:31;100519.34;;;19.10;67.33
45523;BME280;31254;51.680;5.394;2022-10-24T09:36:02;100529.09;;;19.40;67.11
45523;BME280;31254;51.680;5.394;2022-10-24T09:38:35;100549.88;;;19.62;66.21
45523;BME280;31254;51.680;5.394;2022-10-24T09:41:14;100547.09;;;19.76;66.14
45523;BME280;31254;51.680;5.394;2022-10-24T09:46:14;100526.56;;;19.31;66.46
45523;BME280;31254;51.680;5.394;2022-10-24T09:48:48;100570.38;;;19.34;66.89
45523;BME280;31254;51.680;5.394;2022-10-24T09:51:31;100562.06;;;19.34;67.01
45523;BME280;31254;51.680;5.394;2022-10-24T09:56:46;100549.94;;;19.29;66.50
45523;BME280;31254;51.680;5.394;2022-10-24T09:59:44;100585.88;;;19.49;66.57
45523;BME280;31254;51.680;5.394;2022-10-24T10:05:14;100568.25;;;19.30;67.00
45523;BME280;31254;51.680;5.394;2022-10-24T10:07:41;100579.09;;;19.31;66.81
45523;BME280;31254;51.680;5.394;2022-10-24T10:12:55;100592.44;;;19.68;66.34
45523;BME280;31254;51.680;5.394;2022-10-24T10:18:26;100594.53;;;19.93;65.11
45523;BME280;31254;51.680;5.394;2022-10-24T10:21:02;100600.94;;;19.86;65.19
45523;BME280;31254;51.680;5.394;2022-10-24T10:23:40;100578.16;;;19.71;64.88
45523;BME280;31254;51.680;5.394;2022-10-24T10:26:17;100614.78;;;19.86;64.49
45523;BME280;31254;51.680;5.394;2022-10-24T10:28:58;100614.41;;;19.76;64.71
45523;BME280;31254;51.680;5.394;2022-10-24T10:31:36;100624.78;;;19.81;64.81
45523;BME280;31254;51.680;5.394;2022-10-24T10:34:25;100620.34;;;19.80;64.14
45523;BME280;31254;51.680;5.394;2022-10-24T10:52:48;100643.94;;;19.82;63.99
45523;BME280;31254;51.680;5.394;2022-10-24T11:03:25;100646.00;;;20.14;62.79
45523;BME280;31254;51.680;5.394;2022-10-24T11:06:14;100627.28;;;20.09;62.85
45523;BME280;31254;51.680;5.394;2022-10-24T11:08:51;100649.16;;;20.24;62.85
45523;BME280;31254;51.680;5.394;2022-10-24T11:11:43;100642.00;;;20.03;63.37
45523;BME280;31254;51.680;5.394;2022-10-24T11:14:29;100643.06;;;19.95;63.33
45523;BME280;31254;51.680;5.394;2022-10-24T11:22:52;100681.41;;;19.71;65.31
45523;BME280;31254;51.680;5.394;2022-10-24T11:25:32;100672.06;;;19.46;66.54
45523;BME280;31254;51.680;5.394;2022-10-24T11:33:24;100694.09;;;18.86;69.72
45523;BME280;31254;51.680;5.394;2022-10-24T11:38:31;100676.56;;;18.58;70.40
45523;BME280;31254;51.680;5.394;2022-10-24T11:41:25;100697.38;;;18.61;70.74
45523;BME280;31254;51.680;5.394;2022-10-24T11:44:02;100674.97;;;18.36;71.28
45523;BME280;31254;51.680;5.394;2022-10-24T11:46:43;100696.66;;;18.39;71.75
45523;BME280;31254;51.680;5.394;2022-10-24T11:49:21;100693.59;;;18.27;72.35
45523;BME280;31254;51.680;5.394;2022-10-24T11:51:54;100696.44;;;18.34;72.39
45523;BME280;31254;51.680;5.394;2022-10-24T11:54:41;100698.16;;;18.48;71.93
45523;BME280;31254;51.680;5.394;2022-10-24T11:57:14;100700.78;;;18.56;71.48
45523;BME280;31254;51.680;5.394;2022-10-24T11:59:43;100699.06;;;18.55;71.62
45523;BME280;31254;51.680;5.394;2022-10-24T12:02:43;100690.97;;;18.47;71.72
45523;BME280;31254;51.680;5.394;2022-10-24T12:16:22;100707.47;;;17.99;73.25
45523;BME280;31254;51.680;5.394;2022-10-24T12:18:58;100696.22;;;17.72;73.50
45523;BME280;31254;51.680;5.394;2022-10-24T12:21:34;100722.59;;;17.81;73.71
45523;BME280;31254;51.680;5.394;2022-10-24T12:24:25;100713.81;;;17.71;73.98
45523;BME280;31254;51.680;5.394;2022-10-24T12:29:31;100725.53;;;17.51;74.70
45523;BME280;31254;51.680;5.394;2022-10-24T12:32:22;100728.69;;;17.48;75.02
45523;BME280;31254;51.680;5.394;2022-10-24T12:34:58;100725.53;;;17.51;75.33
45523;BME280;31254;51.680;5.394;2022-10-24T12:37:45;100694.91;;;17.40;75.52
45523;BME280;31254;51.680;5.394;2022-10-24T12:40:50;100721.13;;;17.57;75.30
45523;BME280;31254;51.680;5.394;2022-10-24T12:43:31;100716.28;;;17.59;75.43
45523;BME280;31254;51.680;5.394;2022-10-24T12:49:24;100732.34;;;17.77;74.90
45523;BME280;31254;51.680;5.394;2022-10-24T12:51:53;100724.69;;;17.79;75.02
45523;BME280;31254;51.680;5.394;2022-10-24T12:54:42;100720.38;;;17.92;74.58
45523;BME280;31254;51.680;5.394;2022-10-24T12:59:46;100717.88;;;17.97;74.27
45523;BME280;31254;51.680;5.394;2022-10-24T13:07:38;100704.78;;;18.12;73.83
45523;BME280;31254;51.680;5.394;2022-10-24T13:16:33;100705.41;;;18.49;72.76
45523;BME280;31254;51.680;5.394;2022-10-24T13:19:13;100705.63;;;18.54;72.65
45523;BME280;31254;51.680;5.394;2022-10-24T13:37:23;100677.31;;;18.87;70.97
45523;BME280;31254;51.680;5.394;2022-10-24T13:44:51;100696.97;;;19.32;68.80
45523;BME280;31254;51.680;5.394;2022-10-24T13:47:41;100676.31;;;19.22;69.31
45523;BME280;31254;51.680;5.394;2022-10-24T13:55:29;100682.91;;;19.47;67.89
45523;BME280;31254;51.680;5.394;2022-10-24T13:58:09;100702.50;;;19.52;68.21
45523;BME280;31254;51.680;5.394;2022-10-24T14:00:41;100705.69;;;19.29;67.63
45523;BME280;31254;51.680;5.394;2022-10-24T14:03:17;100708.66;;;19.21;67.86
45523;BME280;31254;51.680;5.394;2022-10-24T14:05:48;100709.69;;;19.20;68.01
45523;BME280;31254;51.680;5.394;2022-10-24T14:08:42;100712.44;;;19.13;67.93
45523;BME280;31254;51.680;5.394;2022-10-24T14:11:26;100693.28;;;18.98;66.98
45523;BME280;31254;51.680;5.394;2022-10-24T14:14:00;100714.59;;;19.11;66.90
45523;BME280;31254;51.680;5.394;2022-10-24T14:16:33;100720.31;;;19.10;66.93
45523;BME280;31254;51.680;5.394;2022-10-24T14:19:22;100710.72;;;19.06;67.01
45523;BME280;31254;51.680;5.394;2022-10-24T14:21:55;100715.84;;;19.09;66.70
45523;BME280;31254;51.680;5.394;2022-10-24T14:24:21;100719.88;;;19.13;66.50
45523;BME280;31254;51.680;5.394;2022-10-24T14:26:49;100688.19;;;18.95;66.41
45523;BME280;31254;51.680;5.394;2022-10-24T14:32:02;100715.84;;;19.09;66.71
45523;BME280;31254;51.680;5.394;2022-10-24T14:34:30;100724.34;;;19.07;66.47
45523;BME280;31254;51.680;5.394;2022-10-24T14:37:03;100733.25;;;19.03;66.28
45523;BME280;31254;51.680;5.394;2022-10-24T14:39:31;100700.47;;;18.86;66.11
45523;BME280;31254;51.680;5.394;2022-10-24T14:42:01;100707.63;;;18.80;66.09
45523;BME280;31254;51.680;5.394;2022-10-24T14:44:28;100733.22;;;18.89;66.50
45523;BME280;31254;51.680;5.394;2022-10-24T14:47:18;100735.75;;;18.84;66.20
45523;BME280;31254;51.680;5.394;2022-10-24T14:49:46;100745.03;;;18.76;66.39
45523;BME280;31254;51.680;5.394;2022-10-24T14:54:51;100743.94;;;18.71;66.46
45523;BME280;31254;51.680;5.394;2022-10-24T14:57:20;100724.75;;;18.56;66.77
45523;BME280;31254;51.680;5.394;2022-10-24T14:59:50;100756.28;;;18.68;66.63
45523;BME280;31254;51.680;5.394;2022-10-24T15:02:37;100734.34;;;18.53;66.77
45523;BME280;31254;51.680;5.394;2022-10-24T15:07:42;100759.66;;;18.63;66.53
45523;BME280;31254;51.680;5.394;2022-10-24T15:13:08;100766.44;;;18.61;66.69
45523;BME280;31254;51.680;5.394;2022-10-24T15:15:54;100763.63;;;18.54;66.91
45523;BME280;31254;51.680;5.394;2022-10-24T15:18:40;100772.31;;;18.51;67.04
45523;BME280;31254;51.680;5.394;2022-10-24T15:21:13;100752.69;;;18.33;66.85
45523;BME280;31254;51.680;5.394;2022-10-24T15:23:53;100775.44;;;18.35;67.38
45523;BME280;31254;51.680;5.394;2022-10-24T15:26:34;100786.47;;;18.35;67.50
45523;BME280;31254;51.680;5.394;2022-10-24T15:31:35;100764.22;;;18.08;68.59
45523;BME280;31254;51.680;5.394;2022-10-24T15:34:02;100796.13;;;18.17;69.11
45523;BME280;31254;51.680;5.394;2022-10-24T15:36:32;100795.88;;;18.12;69.44
45523;BME280;31254;51.680;5.394;2022-10-24T15:39:10;100786.91;;;18.03;69.64
45523;BME280;31254;51.680;5.394;2022-10-24T15:41:39;100797.28;;;18.01;69.84
45523;BME280;31254;51.680;5.394;2022-10-24T15:44:27;100799.56;;;17.98;70.05